createdAt,value
2022-10-13T00:01:23.611Z,2.09
2022-10-13T00:03:51.947Z,1.73
2022-10-13T00:06:26.524Z,1.98
2022-10-13T00:08:59.928Z,1.68
2022-10-13T00:11:30.458Z,1.63
2022-10-13T00:14:02.599Z,1.93
2022-10-13T00:16:32.705Z,1.75
2022-10-13T00:19:00.643Z,1.96
2022-10-13T00:21:29.458Z,2.03
2022-10-13T00:23:57.767Z,2.01
2022-10-13T00:26:27.518Z,1.66
2022-10-13T00:28:56.999Z,2.06
2022-10-13T00:34:17.235Z,1.95
2022-10-13T00:36:45.203Z,1.92
2022-10-13T00:39:13.379Z,1.93
2022-10-13T00:41:41.712Z,1.87
2022-10-13T00:45:05.578Z,1.98
2022-10-13T00:47:47.307Z,2.03
2022-10-13T00:50:21.333Z,2.00
2022-10-13T00:52:58.139Z,1.74
2022-10-13T00:55:32.238Z,1.84
2022-10-13T00:58:05.392Z,1.88
2022-10-13T01:00:35.810Z,1.54
2022-10-13T01:03:04.542Z,1.75
2022-10-13T01:05:32.830Z,1.52
2022-10-13T01:08:02.552Z,1.56
2022-10-13T01:11:04.773Z,1.37
2022-10-13T01:13:43.008Z,1.29
2022-10-13T01:16:29.545Z,1.12
2022-10-13T01:19:25.498Z,1.65
2022-10-13T01:22:21.904Z,1.57
2022-10-13T01:24:53.036Z,1.53
2022-10-13T01:28:04.803Z,1.51
2022-10-13T01:30:46.740Z,1.20
2022-10-13T01:33:25.691Z,1.20
2022-10-13T01:36:25.803Z,1.34
2022-10-13T01:39:08.000Z,1.29
2022-10-13T01:41:40.485Z,1.41
2022-10-13T01:44:34.244Z,1.40
2022-10-13T01:47:03.505Z,1.32
2022-10-13T01:49:35.525Z,1.26
2022-10-13T01:52:10.599Z,1.19
2022-10-13T01:54:38.622Z,1.14
2022-10-13T01:57:32.480Z,1.02
2022-10-13T02:00:06.711Z,0.74
2022-10-13T02:03:17.859Z,0.99
2022-10-13T02:06:01.635Z,1.00
2022-10-13T02:08:49.795Z,0.76
2022-10-13T02:11:24.132Z,0.67
2022-10-13T02:14:10.191Z,1.05
2022-10-13T02:16:44.127Z,0.96
2022-10-13T02:19:17.313Z,0.83
2022-10-13T02:21:46.105Z,0.97
2022-10-13T02:24:14.920Z,0.44
2022-10-13T02:26:43.279Z,0.66
2022-10-13T02:29:17.621Z,0.87
2022-10-13T02:31:46.675Z,0.87
2022-10-13T02:34:16.017Z,0.68
2022-10-13T02:36:48.150Z,0.45
2022-10-13T02:39:17.835Z,0.61
2022-10-13T02:41:46.043Z,0.63
2022-10-13T02:44:14.108Z,0.79
2022-10-13T02:46:42.478Z,0.36
2022-10-13T02:49:11.034Z,0.70
2022-10-13T02:51:40.385Z,0.73
2022-10-13T02:54:08.832Z,0.70
2022-10-13T02:56:36.818Z,0.66
2022-10-13T02:59:05.085Z,0.63
2022-10-13T03:01:33.254Z,0.60
2022-10-13T03:04:01.476Z,0.50
2022-10-13T03:06:29.558Z,0.45
2022-10-13T03:08:57.462Z,0.21
2022-10-13T03:11:25.548Z,0.15
2022-10-13T03:13:53.832Z,0.41
2022-10-13T03:16:21.777Z,0.45
2022-10-13T03:18:49.755Z,0.51
2022-10-13T03:21:17.876Z,0.51
2022-10-13T03:23:45.903Z,0.53
2022-10-13T03:26:14.012Z,0.42
2022-10-13T03:28:42.112Z,0.24
2022-10-13T03:31:12.159Z,0.16
2022-10-13T03:33:41.212Z,0.20
2022-10-13T03:36:10.999Z,0.18
2022-10-13T03:38:39.649Z,0.16
2022-10-13T03:41:15.768Z,0.14
2022-10-13T03:43:45.860Z,-0.37
2022-10-13T03:46:17.758Z,0.09
2022-10-13T03:48:48.049Z,0.09
2022-10-13T03:51:20.107Z,0.06
2022-10-13T03:53:52.133Z,0.00
2022-10-13T03:56:24.608Z,-0.01
2022-10-13T03:59:04.975Z,-0.19
2022-10-13T04:01:34.522Z,-0.07
2022-10-13T04:04:02.854Z,-0.12
2022-10-13T04:06:31.848Z,-0.11
2022-10-13T04:09:00.118Z,-0.37
2022-10-13T04:11:28.136Z,-0.11
2022-10-13T04:13:57.891Z,-0.17
2022-10-13T04:16:29.989Z,-0.35
2022-10-13T04:19:04.768Z,-0.33
2022-10-13T04:21:35.087Z,-0.05
2022-10-13T04:24:04.719Z,-0.27
2022-10-13T04:26:36.475Z,-0.28
2022-10-13T04:29:12.303Z,-0.11
2022-10-13T04:31:44.032Z,-0.06
2022-10-13T04:34:12.488Z,-0.04
2022-10-13T04:36:40.355Z,-0.06
2022-10-13T04:39:08.572Z,-0.08
2022-10-13T04:41:36.589Z,-0.14
2022-10-13T04:44:04.394Z,-0.03
2022-10-13T04:46:32.543Z,0.00
2022-10-13T04:49:00.646Z,-0.24
2022-10-13T04:51:34.178Z,-0.24
2022-10-13T04:54:03.218Z,-0.31
2022-10-13T04:56:31.911Z,-0.38
2022-10-13T04:59:06.103Z,-0.39
2022-10-13T05:01:36.128Z,-0.40
2022-10-13T05:04:07.754Z,-0.16
2022-10-13T05:07:05.178Z,-0.07
2022-10-13T05:09:29.799Z,-0.01
2022-10-13T05:11:57.659Z,0.09
2022-10-13T05:14:25.601Z,0.06
2022-10-13T05:16:54.375Z,0.12
2022-10-13T05:19:22.583Z,0.21
2022-10-13T05:21:50.548Z,0.03
2022-10-13T05:24:20.968Z,0.30
2022-10-13T05:26:50.537Z,0.53
2022-10-13T05:29:18.536Z,0.76
2022-10-13T05:31:46.809Z,0.94
2022-10-13T05:34:15.129Z,0.95
2022-10-13T05:36:43.017Z,1.12
2022-10-13T05:39:11.263Z,1.27
2022-10-13T05:41:39.593Z,1.15
2022-10-13T05:44:17.681Z,1.40
2022-10-13T05:46:54.619Z,1.39
2022-10-13T05:49:22.701Z,1.63
2022-10-13T05:51:58.234Z,1.91
2022-10-13T05:54:35.978Z,1.98
2022-10-13T05:57:17.813Z,2.31
2022-10-13T06:00:01.655Z,2.51
2022-10-13T06:02:53.243Z,2.79
2022-10-13T06:05:25.326Z,2.99
2022-10-13T06:07:56.083Z,3.07
2022-10-13T06:10:24.656Z,3.54
2022-10-13T06:12:52.755Z,3.47
2022-10-13T06:15:24.448Z,3.62
2022-10-13T06:17:57.927Z,3.72
2022-10-13T06:20:27.602Z,4.15
2022-10-13T06:22:56.467Z,4.24
2022-10-13T06:25:24.840Z,4.63
2022-10-13T06:27:52.690Z,4.92
2022-10-13T06:30:20.629Z,5.24
2022-10-13T06:32:48.927Z,5.63
2022-10-13T06:35:16.843Z,5.90
2022-10-13T06:37:46.648Z,6.39
2022-10-13T06:40:15.710Z,6.70
2022-10-13T06:42:49.040Z,6.89
2022-10-13T06:45:18.284Z,7.01
2022-10-13T06:47:46.590Z,7.48
2022-10-13T06:50:15.095Z,7.72
2022-10-13T06:52:44.283Z,8.00
2022-10-13T06:55:12.295Z,8.24
2022-10-13T06:57:40.197Z,8.30
2022-10-13T07:00:09.773Z,8.60
2022-10-13T07:02:38.692Z,8.62
2022-10-13T07:05:07.141Z,8.89
2022-10-13T07:07:36.143Z,8.96
2022-10-13T07:10:04.454Z,9.10
2022-10-13T07:12:32.525Z,9.26
2022-10-13T07:15:00.635Z,9.34
2022-10-13T07:17:28.597Z,9.29
2022-10-13T07:19:57.976Z,9.25
2022-10-13T07:22:27.261Z,9.39
2022-10-13T07:24:55.144Z,9.74
2022-10-13T07:27:24.265Z,9.80
2022-10-13T07:29:52.633Z,9.95
2022-10-13T07:32:20.575Z,10.42
2022-10-13T07:34:51.611Z,10.47
2022-10-13T07:37:20.081Z,10.67
2022-10-13T07:39:48.287Z,10.45
2022-10-13T07:42:17.235Z,11.01
2022-10-13T07:44:45.459Z,10.93
2022-10-13T07:47:13.919Z,11.43
2022-10-13T07:49:43.265Z,11.37
2022-10-13T07:52:11.259Z,11.55
2022-10-13T07:54:39.143Z,11.62
2022-10-13T07:57:07.066Z,11.58
2022-10-13T07:59:36.359Z,11.56
2022-10-13T08:02:04.415Z,11.83
2022-10-13T08:04:34.083Z,12.16
2022-10-13T08:07:03.509Z,12.02
2022-10-13T08:09:31.891Z,12.41
2022-10-13T08:12:01.964Z,12.31
2022-10-13T08:14:31.301Z,12.59
2022-10-13T08:16:59.519Z,12.96
2022-10-13T08:19:28.489Z,12.69
2022-10-13T08:21:58.885Z,13.23
2022-10-13T08:24:28.240Z,13.13
2022-10-13T08:26:56.422Z,13.50
2022-10-13T08:29:24.702Z,13.60
2022-10-13T08:31:54.129Z,13.98
2022-10-13T08:34:25.861Z,13.98
2022-10-13T08:36:56.758Z,14.07
2022-10-13T08:39:26.393Z,14.04
2022-10-13T08:41:56.432Z,14.48
2022-10-13T08:47:53.280Z,14.33
2022-10-13T08:50:26.126Z,14.20
2022-10-13T08:53:00.667Z,13.88
2022-10-13T08:55:49.806Z,13.77
2022-10-13T08:58:31.601Z,14.34
2022-10-13T09:01:15.451Z,13.96
2022-10-13T09:04:01.020Z,14.36
2022-10-13T09:06:36.772Z,14.13
2022-10-13T09:09:15.653Z,14.36
2022-10-13T09:11:48.855Z,14.55
2022-10-13T09:14:34.043Z,13.67
2022-10-13T09:17:26.662Z,14.61
2022-10-13T09:20:20.085Z,14.22
2022-10-13T09:23:08.174Z,14.10
2022-10-13T09:25:46.482Z,14.67
2022-10-13T09:28:24.666Z,14.54
2022-10-13T09:31:14.941Z,14.83
2022-10-13T09:33:42.978Z,14.87
2022-10-13T09:36:14.835Z,14.67
2022-10-13T09:39:05.509Z,15.20
2022-10-13T09:41:39.479Z,14.91
2022-10-13T09:44:28.250Z,15.09
2022-10-13T09:47:01.179Z,14.93
2022-10-13T09:49:43.769Z,15.15
2022-10-13T09:52:18.180Z,15.38
2022-10-13T09:54:56.411Z,15.38
2022-10-13T09:57:41.765Z,15.29
2022-10-13T10:00:27.571Z,15.15
2022-10-13T10:03:13.696Z,15.50
2022-10-13T10:05:56.689Z,15.33
2022-10-13T10:09:03.287Z,15.57
2022-10-13T10:11:48.016Z,15.70
2022-10-13T10:14:29.961Z,15.03
2022-10-13T10:17:16.499Z,15.04
2022-10-13T10:20:21.231Z,15.36
2022-10-13T10:22:55.050Z,15.09
2022-10-13T10:26:10.350Z,15.14
2022-10-13T10:29:16.959Z,15.41
2022-10-13T10:32:03.827Z,15.53
2022-10-13T10:35:11.998Z,15.75
2022-10-13T10:38:02.742Z,15.85
2022-10-13T10:40:49.813Z,16.14
2022-10-13T10:43:47.239Z,15.89
2022-10-13T10:46:28.316Z,16.29
2022-10-13T10:49:02.847Z,16.16
2022-10-13T10:51:37.938Z,16.00
2022-10-13T10:54:39.140Z,16.36
2022-10-13T10:57:50.207Z,16.50
2022-10-13T11:00:22.423Z,16.47
2022-10-13T11:03:11.061Z,16.83
2022-10-13T11:06:16.626Z,16.90
2022-10-13T11:08:47.376Z,16.73
2022-10-13T11:11:28.638Z,17.27
2022-10-13T11:14:08.069Z,17.18
2022-10-13T11:16:58.688Z,17.04
2022-10-13T11:19:36.884Z,16.90
2022-10-13T11:22:05.527Z,16.71
2022-10-13T11:24:39.263Z,17.05
2022-10-13T11:27:12.647Z,16.58
2022-10-13T11:29:54.140Z,16.98
2022-10-13T11:32:41.427Z,16.99
2022-10-13T11:35:12.368Z,17.61
2022-10-13T11:38:06.744Z,16.83
2022-10-13T11:41:23.813Z,17.01
2022-10-13T11:47:20.689Z,17.38
2022-10-13T11:50:30.260Z,17.09
2022-10-13T11:53:27.945Z,16.81
2022-10-13T11:55:59.150Z,17.03
2022-10-13T11:58:33.857Z,17.41
2022-10-13T12:01:06.732Z,17.13
2022-10-13T12:03:45.871Z,17.22
2022-10-13T12:06:37.081Z,17.47
2022-10-13T12:09:19.529Z,17.13
2022-10-13T12:11:57.037Z,17.30
2022-10-13T12:14:52.533Z,17.44
2022-10-13T12:17:28.484Z,17.79
2022-10-13T12:20:01.197Z,16.91
2022-10-13T12:22:30.735Z,17.68
2022-10-13T12:25:02.161Z,17.58
2022-10-13T12:27:33.392Z,17.09
2022-10-13T12:30:02.525Z,17.38
2022-10-13T12:32:34.613Z,17.52
2022-10-13T12:35:26.056Z,17.66
2022-10-13T12:37:55.757Z,17.75
2022-10-13T12:40:24.096Z,17.55
2022-10-13T12:42:52.293Z,17.03
2022-10-13T12:45:24.499Z,17.54
2022-10-13T12:47:54.940Z,17.59
2022-10-13T12:50:25.829Z,17.74
2022-10-13T12:53:15.957Z,17.20
2022-10-13T12:56:01.408Z,17.55
2022-10-13T12:58:33.397Z,17.21
2022-10-13T13:01:07.508Z,17.50
2022-10-13T13:03:37.529Z,17.05
2022-10-13T13:06:15.184Z,17.01
2022-10-13T13:08:43.667Z,17.25
2022-10-13T13:11:35.674Z,17.38
2022-10-13T13:14:39.162Z,16.77
2022-10-13T13:17:27.661Z,17.51
2022-10-13T13:20:22.588Z,17.50
2022-10-13T13:22:51.199Z,16.84
2022-10-13T13:25:19.260Z,17.49
2022-10-13T13:27:47.572Z,17.30
2022-10-13T13:30:22.044Z,17.48
2022-10-13T13:32:51.763Z,17.09
2022-10-13T13:35:19.805Z,17.35
2022-10-13T13:37:51.439Z,16.90
2022-10-13T13:40:21.946Z,17.06
2022-10-13T13:42:49.901Z,17.04
2022-10-13T13:45:22.258Z,16.89
2022-10-13T13:47:50.743Z,16.75
2022-10-13T13:50:32.261Z,16.39
2022-10-13T13:53:00.424Z,16.34
2022-10-13T13:55:30.011Z,16.78
2022-10-13T13:57:59.085Z,16.74
2022-10-13T14:00:27.557Z,16.82
2022-10-13T14:02:57.813Z,16.74
2022-10-13T14:05:26.331Z,16.59
2022-10-13T14:07:59.065Z,16.99
2022-10-13T14:10:27.485Z,16.71
2022-10-13T14:12:55.915Z,16.31
2022-10-13T14:15:28.794Z,16.38
2022-10-13T14:17:57.979Z,16.46
2022-10-13T14:20:26.385Z,16.38
2022-10-13T14:22:54.291Z,16.21
2022-10-13T14:25:22.475Z,16.15
2022-10-13T14:27:50.535Z,15.69
2022-10-13T14:30:19.286Z,15.81
2022-10-13T14:32:47.669Z,15.88
2022-10-13T14:35:15.656Z,15.95
2022-10-13T14:37:43.539Z,15.81
2022-10-13T14:40:11.690Z,15.76
2022-10-13T14:42:39.725Z,16.00
2022-10-13T14:45:16.854Z,15.88
2022-10-13T14:47:44.747Z,15.19
2022-10-13T14:50:12.731Z,15.34
2022-10-13T14:52:40.961Z,15.65
2022-10-13T14:55:09.524Z,15.26
2022-10-13T14:57:37.967Z,15.66
2022-10-13T15:00:06.504Z,15.63
2022-10-13T15:02:34.484Z,15.43
2022-10-13T15:05:02.357Z,15.15
2022-10-13T15:07:31.446Z,15.12
2022-10-13T15:10:06.722Z,15.11
2022-10-13T15:12:35.193Z,14.76
2022-10-13T15:15:04.002Z,14.54
2022-10-13T15:17:33.392Z,14.32
2022-10-13T15:20:01.724Z,14.44
2022-10-13T15:22:30.046Z,14.19
2022-10-13T15:24:57.883Z,13.53
2022-10-13T15:27:25.935Z,13.78
2022-10-13T15:29:53.880Z,13.56
2022-10-13T15:32:22.045Z,13.38
2022-10-13T15:34:56.094Z,12.66
2022-10-13T15:37:24.085Z,12.84
2022-10-13T15:39:56.933Z,12.73
2022-10-13T15:42:25.443Z,12.52
2022-10-13T15:45:10.328Z,12.34
2022-10-13T15:47:39.093Z,12.18
2022-10-13T15:50:08.935Z,11.97
2022-10-13T15:52:40.781Z,11.68
2022-10-13T15:55:11.119Z,11.30
2022-10-13T15:57:39.481Z,11.29
2022-10-13T16:00:28.421Z,10.99
2022-10-13T16:02:56.468Z,10.83
2022-10-13T16:05:24.801Z,10.92
2022-10-13T16:07:52.917Z,10.81
2022-10-13T16:10:20.772Z,10.49
2022-10-13T16:12:50.162Z,10.64
2022-10-13T16:15:19.362Z,10.38
2022-10-13T16:17:47.754Z,10.39
2022-10-13T16:20:17.314Z,10.02
2022-10-13T16:22:45.599Z,10.25
2022-10-13T16:25:15.107Z,10.07
2022-10-13T16:27:44.640Z,10.09
2022-10-13T16:30:13.422Z,10.03
2022-10-13T16:32:41.678Z,9.92
2022-10-13T16:35:10.002Z,9.89
2022-10-13T16:37:38.223Z,9.75
2022-10-13T16:40:07.052Z,9.66
2022-10-13T16:42:36.588Z,9.28
2022-10-13T16:45:05.337Z,9.49
2022-10-13T16:47:33.242Z,9.40
2022-10-13T16:50:01.979Z,9.30
2022-10-13T16:52:30.087Z,9.21
2022-10-13T16:54:58.149Z,9.12
2022-10-13T16:57:26.310Z,9.03
2022-10-13T16:59:55.333Z,8.64
2022-10-13T17:02:29.589Z,8.84
2022-10-13T17:04:57.810Z,8.84
2022-10-13T17:07:25.831Z,8.91
2022-10-13T17:09:53.900Z,8.85
2022-10-13T17:12:22.126Z,8.53
2022-10-13T17:14:49.994Z,8.72
2022-10-13T17:17:18.360Z,8.35
2022-10-13T17:19:46.719Z,8.59
2022-10-13T17:22:15.203Z,8.32
2022-10-13T17:24:48.315Z,8.50
2022-10-13T17:27:18.014Z,8.40
2022-10-13T17:29:46.743Z,8.02
2022-10-13T17:32:15.208Z,8.24
2022-10-13T17:34:43.205Z,8.19
2022-10-13T17:37:15.100Z,8.12
2022-10-13T17:39:43.182Z,8.04
2022-10-13T17:42:11.114Z,7.93
2022-10-13T17:44:40.594Z,7.77
2022-10-13T17:47:11.409Z,7.45
2022-10-13T17:49:43.296Z,7.36
2022-10-13T17:52:15.381Z,7.57
2022-10-13T17:54:43.710Z,7.49
2022-10-13T17:57:11.672Z,7.46
2022-10-13T17:59:40.058Z,7.39
2022-10-13T18:02:10.426Z,7.35
2022-10-13T18:04:38.579Z,7.29
2022-10-13T18:07:07.035Z,7.25
2022-10-13T18:09:35.166Z,7.20
2022-10-13T18:12:03.982Z,7.14
2022-10-13T18:14:32.726Z,7.06
2022-10-13T18:17:01.148Z,7.04
2022-10-13T18:19:29.305Z,6.96
2022-10-13T18:21:58.505Z,6.95
2022-10-13T18:24:26.806Z,6.81
2022-10-13T18:26:57.083Z,6.73
2022-10-13T18:29:25.471Z,7.03
2022-10-13T18:31:56.716Z,7.09
2022-10-13T18:34:25.037Z,7.17
2022-10-13T18:36:58.708Z,7.01
2022-10-13T18:39:29.092Z,7.16
2022-10-13T18:41:58.385Z,6.76
2022-10-13T18:44:35.283Z,6.79
2022-10-13T18:47:03.580Z,6.94
2022-10-13T18:49:31.696Z,6.67
2022-10-13T18:52:02.200Z,6.88
2022-10-13T18:54:31.015Z,6.77
2022-10-13T18:56:59.393Z,6.70
2022-10-13T18:59:28.331Z,6.74
2022-10-13T19:01:57.135Z,6.58
2022-10-13T19:04:26.868Z,6.41
2022-10-13T19:06:56.261Z,6.61
2022-10-13T19:09:26.472Z,6.50
2022-10-13T19:11:58.342Z,6.49
2022-10-13T19:14:27.498Z,6.37
2022-10-13T19:16:59.482Z,6.29
2022-10-13T19:19:31.217Z,6.21
2022-10-13T19:22:01.675Z,6.14
2022-10-13T19:24:29.864Z,5.78
2022-10-13T19:26:58.168Z,5.88
2022-10-13T19:29:26.270Z,5.71
2022-10-13T19:31:54.435Z,5.66
2022-10-13T19:34:23.479Z,5.65
2022-10-13T19:36:51.708Z,5.87
2022-10-13T19:39:24.327Z,5.87
2022-10-13T19:41:55.903Z,5.81
2022-10-13T19:44:24.969Z,5.62
2022-10-13T19:46:54.333Z,5.98
2022-10-13T19:49:26.533Z,5.79
2022-10-13T19:51:56.237Z,5.85
2022-10-13T19:54:27.924Z,5.95
2022-10-13T19:56:58.617Z,5.89
2022-10-13T19:59:28.997Z,5.85
2022-10-13T20:01:58.111Z,5.77
2022-10-13T20:04:26.493Z,5.72
2022-10-13T20:06:54.777Z,5.78
2022-10-13T20:09:23.562Z,5.75
2022-10-13T20:11:52.226Z,5.71
2022-10-13T20:14:20.635Z,5.65
2022-10-13T20:16:49.007Z,5.55
2022-10-13T20:19:19.853Z,5.33
2022-10-13T20:21:51.928Z,5.41
2022-10-13T20:24:23.344Z,5.15
2022-10-13T20:26:51.322Z,5.28
2022-10-13T20:29:23.488Z,5.33
2022-10-13T20:31:52.574Z,5.35
2022-10-13T20:34:20.670Z,5.35
2022-10-13T20:36:51.502Z,5.36
2022-10-13T20:39:20.353Z,5.38
2022-10-13T20:41:49.674Z,5.33
2022-10-13T20:44:18.594Z,5.32
2022-10-13T20:46:46.684Z,5.08
2022-10-13T20:49:15.220Z,5.19
2022-10-13T20:51:44.046Z,5.13
2022-10-13T20:54:16.888Z,4.95
2022-10-13T20:56:44.975Z,4.76
2022-10-13T20:59:18.038Z,4.49
2022-10-13T21:01:46.265Z,4.66
2022-10-13T21:04:15.013Z,4.98
2022-10-13T21:06:43.299Z,4.91
2022-10-13T21:09:11.780Z,4.77
2022-10-13T21:11:42.839Z,5.12
2022-10-13T21:14:11.312Z,5.19
2022-10-13T21:16:40.977Z,5.04
2022-10-13T21:19:12.680Z,5.10
2022-10-13T21:21:41.299Z,5.34
2022-10-13T21:24:11.145Z,5.16
2022-10-13T21:26:41.326Z,5.35
2022-10-13T21:29:15.597Z,5.32
2022-10-13T21:31:43.731Z,5.21
2022-10-13T21:34:12.204Z,5.17
2022-10-13T21:36:44.452Z,5.11
2022-10-13T21:39:15.149Z,5.19
2022-10-13T21:41:43.568Z,5.26
2022-10-13T21:44:15.058Z,5.33
2022-10-13T21:46:42.963Z,5.31
2022-10-13T21:49:11.421Z,4.94
2022-10-13T21:51:40.793Z,4.84
2022-10-13T21:54:13.663Z,5.08
2022-10-13T21:56:42.781Z,4.99
2022-10-13T21:59:13.029Z,5.01
2022-10-13T22:01:42.635Z,4.82
2022-10-13T22:04:15.779Z,5.09
2022-10-13T22:06:44.251Z,4.60
2022-10-13T22:09:12.330Z,5.08
2022-10-13T22:11:41.351Z,5.11
2022-10-13T22:14:13.481Z,4.59
2022-10-13T22:16:50.405Z,4.81
2022-10-13T22:19:22.936Z,4.39
2022-10-13T22:21:51.481Z,4.23
2022-10-13T22:24:21.831Z,4.31
2022-10-13T22:26:50.516Z,4.21
2022-10-13T22:29:21.530Z,4.08
2022-10-13T22:31:51.426Z,3.74
2022-10-13T22:34:19.825Z,3.70
2022-10-13T22:36:47.863Z,3.88
2022-10-13T22:39:16.396Z,3.88
2022-10-13T22:41:44.725Z,3.76
2022-10-13T22:44:13.808Z,3.81
2022-10-13T22:46:42.208Z,3.78
2022-10-13T22:49:14.927Z,3.62
2022-10-13T22:51:43.050Z,3.37
2022-10-13T22:54:11.012Z,3.59
2022-10-13T22:56:40.442Z,3.53
2022-10-13T22:59:09.012Z,3.27
2022-10-13T23:01:37.240Z,3.21
2022-10-13T23:04:06.100Z,3.02
2022-10-13T23:06:35.379Z,3.37
2022-10-13T23:09:07.426Z,3.10
2022-10-13T23:11:36.609Z,3.11
2022-10-13T23:14:07.108Z,3.46
2022-10-13T23:16:35.670Z,3.58
2022-10-13T23:19:04.439Z,3.24
2022-10-13T23:21:32.663Z,3.56
2022-10-13T23:24:06.753Z,3.45
2022-10-13T23:26:35.328Z,3.21
2022-10-13T23:29:04.134Z,3.38
2022-10-13T23:31:32.191Z,3.37
2022-10-13T23:34:00.321Z,3.35
2022-10-13T23:36:31.727Z,3.38
2022-10-13T23:39:04.540Z,3.09
2022-10-13T23:41:33.314Z,3.34
2022-10-13T23:44:01.693Z,3.09
2022-10-13T23:46:29.977Z,3.20
2022-10-13T23:48:57.991Z,3.08
2022-10-13T23:51:26.735Z,3.05
2022-10-13T23:53:55.323Z,2.97
2022-10-13T23:56:23.871Z,2.97
2022-10-13T23:58:51.912Z,2.91
